Estación Meteorológica Peña el Pijo (Robertgarden) [ 11/20/17 01:24:56 CET ]

Fecha Hora Presion(HPa) Temp (°C) Humedad % Rocio (°C) Viento ( m/s) Direccion Lluvia 1Hora(mm) Lluvia 24H(mm) LLuvia Total(mm)
2017-Nov-13 01:01:57 1009.100 2.4 66 -3.3         1468.01
2017-Nov-13 02:04:06 1008.500 1.6 69 -3.5         1468.01
2017-Nov-13 03:01:49 1008.500 1.3 71 -3.4         1468.01
2017-Nov-13 04:01:40 1008.100 1.3 74 -2.9         1468.01
2017-Nov-13 05:01:41 1008.000 0.9 76 -2.9         1468.01
2017-Nov-13 06:01:39 1007.700 0.4 77 -3.2         1468.01
2017-Nov-13 07:01:40 1007.300 1.8 79 -1.5         1468.01
2017-Nov-13 08:01:46 1007.800 0.9 79 -2.4         1468.01
2017-Nov-13 09:01:31 1007.500 4.5 82 1.7         1468.01
2017-Nov-13 10:01:37 1007.300 12.7 56 4.1         1468.01
2017-Nov-13 11:01:43 1007.500 15.1 43 2.5         1468.01
2017-Nov-13 12:01:47 1007.000 16.8 33 0.3         1468.01
2017-Nov-13 13:01:54 1006.700 16.1 34 0.1         1468.01
2017-Nov-13 14:01:58 1006.400 16.4 33 -0.0         1468.01
2017-Nov-13 15:01:47 1006.200 15.4 35 -0.1 1.8 NW     1468.01
2017-Nov-13 16:01:43 1006.200 13.8 36 -1.1 1.4 NNE     1468.01
2017-Nov-13 17:01:41 1006.400 11.8 37 -2.5         1468.01
2017-Nov-13 18:01:46 1006.800 9.8 40 -3.2         1468.01
2017-Nov-13 19:01:56 1007.300 7.4 46 -3.5         1468.01
2017-Nov-13 20:01:42 1007.700 5.4 51 -4.0         1468.01
2017-Nov-13 21:01:59 1008.000 3.3 56 -4.7         1468.01
2017-Nov-13 22:01:40 1007.900 1.4 62 -5.1         1468.01
2017-Nov-13 23:01:39 1008.000 1.3 63 -5.0         1468.01

Temperatura Máxima:16°    Temperatura Mínima:
Presión Máxima:1009.100 Hpa    Presión Mínima:1006.200 Hpa


Volver